createdAt,value
2023-01-17T00:01:50.396Z,0.73
2023-01-17T00:04:37.216Z,0.90
2023-01-17T00:07:22.657Z,0.80
2023-01-17T00:09:57.140Z,0.73
2023-01-17T00:12:27.087Z,0.87
2023-01-17T00:14:56.375Z,0.93
2023-01-17T00:17:25.585Z,0.90
2023-01-17T00:20:12.910Z,1.07
2023-01-17T00:23:00.547Z,1.10
2023-01-17T00:25:48.871Z,1.00
2023-01-17T00:28:16.004Z,1.20
2023-01-17T00:30:42.907Z,1.17
2023-01-17T00:33:09.786Z,1.20
2023-01-17T00:35:37.972Z,0.97
2023-01-17T00:38:06.299Z,1.10
2023-01-17T00:40:34.090Z,1.00
2023-01-17T00:43:19.941Z,1.20
2023-01-17T00:46:06.382Z,0.90
2023-01-17T00:48:52.583Z,2.13
2023-01-17T00:51:40.589Z,1.30
2023-01-17T00:54:26.929Z,1.00
2023-01-17T00:57:13.335Z,1.20
2023-01-17T00:59:59.949Z,1.40
2023-01-17T01:02:45.778Z,1.03
2023-01-17T01:05:33.326Z,0.87
2023-01-17T01:08:21.082Z,1.00
2023-01-17T01:11:07.480Z,1.00
2023-01-17T01:13:53.316Z,1.20
2023-01-17T01:16:39.203Z,1.00
2023-01-17T01:19:24.835Z,0.93
2023-01-17T01:22:10.249Z,1.20
2023-01-17T01:24:57.332Z,1.17
2023-01-17T01:27:42.936Z,1.37
2023-01-17T01:30:29.499Z,1.20
2023-01-17T01:33:14.993Z,1.30
2023-01-17T01:35:43.097Z,1.53
2023-01-17T01:38:11.174Z,1.13
2023-01-17T01:40:45.901Z,0.87
2023-01-17T01:43:15.951Z,1.60
2023-01-17T01:45:48.703Z,1.10
2023-01-17T01:48:33.861Z,1.40
2023-01-17T01:51:04.631Z,1.33
2023-01-17T01:53:36.754Z,1.10
2023-01-17T01:56:10.478Z,1.33
2023-01-17T01:58:40.199Z,1.70
2023-01-17T02:01:09.363Z,1.27
2023-01-17T02:03:38.927Z,1.20
2023-01-17T02:06:16.622Z,1.23
2023-01-17T02:08:45.270Z,1.40
2023-01-17T02:11:14.719Z,1.30
2023-01-17T02:13:43.958Z,1.10
2023-01-17T02:16:20.737Z,1.10
2023-01-17T02:19:00.716Z,1.47
2023-01-17T02:21:32.880Z,1.47
2023-01-17T02:24:37.726Z,1.33
2023-01-17T02:27:12.146Z,1.40
2023-01-17T02:30:17.569Z,1.50
2023-01-17T02:33:01.749Z,1.00
2023-01-17T02:35:36.152Z,1.73
2023-01-17T02:38:13.691Z,1.30
2023-01-17T02:40:45.683Z,1.10
2023-01-17T02:43:17.384Z,1.60
2023-01-17T02:45:45.853Z,1.20
2023-01-17T02:48:19.619Z,1.33
2023-01-17T02:51:07.049Z,1.10
2023-01-17T02:53:47.615Z,1.30
2023-01-17T02:56:27.844Z,1.00
2023-01-17T02:59:07.468Z,1.03
2023-01-17T03:01:46.737Z,1.10
2023-01-17T03:04:21.105Z,1.10
2023-01-17T03:06:55.596Z,1.07
2023-01-17T03:09:25.175Z,1.10
2023-01-17T03:11:53.359Z,1.20
2023-01-17T03:14:21.431Z,1.00
2023-01-17T03:16:49.682Z,1.00
2023-01-17T03:19:19.058Z,1.23
2023-01-17T03:21:47.094Z,1.07
2023-01-17T03:24:15.165Z,1.00
2023-01-17T03:26:44.897Z,0.80
2023-01-17T03:29:12.964Z,1.40
2023-01-17T03:31:40.985Z,1.00
2023-01-17T03:34:09.383Z,1.10
2023-01-17T03:36:38.732Z,0.70
2023-01-17T03:39:06.803Z,1.17
2023-01-17T03:41:34.860Z,0.90
2023-01-17T03:44:02.941Z,1.20
2023-01-17T03:46:30.998Z,1.10
2023-01-17T03:48:59.061Z,1.20
2023-01-17T03:51:27.163Z,1.20
2023-01-17T03:53:56.526Z,1.07
2023-01-17T03:56:24.580Z,0.70
2023-01-17T03:58:53.656Z,0.70
2023-01-17T04:01:21.777Z,1.30
2023-01-17T04:03:49.838Z,0.90
2023-01-17T04:06:17.905Z,0.90
2023-01-17T04:08:45.989Z,0.70
2023-01-17T04:11:15.375Z,1.03
2023-01-17T04:13:43.360Z,1.07
2023-01-17T04:16:14.172Z,0.97
2023-01-17T04:18:42.869Z,1.40
2023-01-17T04:21:11.066Z,1.33
2023-01-17T04:23:39.123Z,0.93
2023-01-17T04:26:07.295Z,1.20
2023-01-17T04:28:36.816Z,1.10
2023-01-17T04:31:04.934Z,1.40
2023-01-17T04:33:33.330Z,1.23
2023-01-17T04:36:01.314Z,1.30
2023-01-17T04:38:29.332Z,1.50
2023-01-17T04:40:57.315Z,1.77
2023-01-17T04:43:25.423Z,1.40
2023-01-17T04:45:57.419Z,1.57
2023-01-17T04:48:26.171Z,1.83
2023-01-17T04:51:00.475Z,1.30
2023-01-17T04:53:28.683Z,1.50
2023-01-17T04:55:57.070Z,1.40
2023-01-17T04:58:25.357Z,1.83
2023-01-17T05:00:53.461Z,2.40
2023-01-17T05:03:23.933Z,2.10
2023-01-17T05:05:52.011Z,1.80
2023-01-17T05:08:20.121Z,1.40
2023-01-17T05:10:48.458Z,1.40
2023-01-17T05:13:16.500Z,1.40
2023-01-17T05:15:45.079Z,1.70
2023-01-17T05:18:14.207Z,1.53
2023-01-17T05:20:44.126Z,1.50
2023-01-17T05:23:12.442Z,2.13
2023-01-17T05:25:44.152Z,1.97
2023-01-17T05:28:12.624Z,2.23
2023-01-17T05:30:41.114Z,1.87
2023-01-17T05:33:10.290Z,1.70
2023-01-17T05:35:38.666Z,2.20
2023-01-17T05:38:08.181Z,1.63
2023-01-17T05:40:36.493Z,1.73
2023-01-17T05:43:04.882Z,2.13
2023-01-17T05:45:34.328Z,2.03
2023-01-17T05:48:03.569Z,1.60
2023-01-17T05:50:33.532Z,1.80
2023-01-17T05:53:03.598Z,1.80
2023-01-17T05:55:33.556Z,1.37
2023-01-17T05:58:02.489Z,1.57
2023-01-17T06:00:31.786Z,1.57
2023-01-17T06:03:01.358Z,2.20
2023-01-17T06:05:30.875Z,1.83
2023-01-17T06:07:59.380Z,2.10
2023-01-17T06:10:28.972Z,1.57
2023-01-17T06:13:06.495Z,1.50
2023-01-17T06:15:36.485Z,2.43
2023-01-17T06:18:09.445Z,1.80
2023-01-17T06:20:39.589Z,1.70
2023-01-17T06:23:10.797Z,1.90
2023-01-17T06:25:39.536Z,1.60
2023-01-17T06:28:08.994Z,1.83
2023-01-17T06:30:37.601Z,1.90
2023-01-17T06:33:06.213Z,2.03
2023-01-17T06:35:34.568Z,1.87
2023-01-17T06:38:02.643Z,2.07
2023-01-17T06:40:31.803Z,2.30
2023-01-17T06:43:02.065Z,1.93
2023-01-17T06:45:33.015Z,2.00
2023-01-17T06:48:01.535Z,2.03
2023-01-17T06:50:29.581Z,2.43
2023-01-17T06:52:59.603Z,2.00
2023-01-17T06:55:28.749Z,2.33
2023-01-17T06:57:56.822Z,2.20
2023-01-17T07:00:25.124Z,3.13
2023-01-17T07:02:54.515Z,2.90
2023-01-17T07:05:23.033Z,2.60
2023-01-17T07:07:51.209Z,2.20
2023-01-17T07:10:19.365Z,2.10
2023-01-17T07:12:48.051Z,3.10
2023-01-17T07:15:16.176Z,2.30
2023-01-17T07:17:44.197Z,1.90
2023-01-17T07:20:14.000Z,2.70
2023-01-17T07:22:45.920Z,2.57
2023-01-17T07:25:14.018Z,3.10
2023-01-17T07:27:42.052Z,4.80
2023-01-17T07:30:11.357Z,2.97
2023-01-17T07:32:39.543Z,4.00
2023-01-17T07:35:08.443Z,3.63
2023-01-17T07:37:38.963Z,3.30
2023-01-17T07:40:08.047Z,3.67
2023-01-17T07:42:36.111Z,3.40
2023-01-17T07:45:04.653Z,3.10
2023-01-17T07:47:33.923Z,3.40
2023-01-17T07:50:02.777Z,3.67
2023-01-17T07:52:30.869Z,3.67
2023-01-17T07:55:00.351Z,3.27
2023-01-17T07:57:28.384Z,3.77
2023-01-17T07:59:56.408Z,2.43
2023-01-17T08:02:24.851Z,2.20
2023-01-17T08:04:52.866Z,2.57
2023-01-17T08:07:20.883Z,3.30
2023-01-17T08:09:50.116Z,3.33
2023-01-17T08:12:19.510Z,3.37
2023-01-17T08:14:47.434Z,4.07
2023-01-17T08:17:17.002Z,2.33
2023-01-17T08:19:45.175Z,2.40
2023-01-17T08:22:13.367Z,2.10
2023-01-17T08:24:41.918Z,2.40
2023-01-17T08:27:10.223Z,2.20
2023-01-17T08:29:42.145Z,2.27
2023-01-17T08:32:10.536Z,1.53
2023-01-17T08:34:38.527Z,2.97
2023-01-17T08:37:06.475Z,3.10
2023-01-17T08:39:34.423Z,3.20
2023-01-17T08:42:02.368Z,2.50
2023-01-17T08:44:30.350Z,2.70
2023-01-17T08:47:00.604Z,2.90
2023-01-17T08:49:28.623Z,2.50
2023-01-17T08:51:56.964Z,2.30
2023-01-17T08:54:24.923Z,2.47
2023-01-17T08:56:55.575Z,3.27
2023-01-17T08:59:23.817Z,2.37
2023-01-17T09:01:52.527Z,2.83
2023-01-17T09:04:22.134Z,2.10
2023-01-17T09:06:50.170Z,2.20
2023-01-17T09:09:18.670Z,2.73
2023-01-17T09:11:46.632Z,2.20
2023-01-17T09:14:15.487Z,2.33
2023-01-17T09:16:43.568Z,2.17
2023-01-17T09:19:11.601Z,2.67
2023-01-17T09:21:40.868Z,2.23
2023-01-17T09:24:08.903Z,1.97
2023-01-17T09:26:37.121Z,1.90
2023-01-17T09:29:05.254Z,1.97
2023-01-17T09:31:33.388Z,2.63
2023-01-17T09:34:01.752Z,2.40
2023-01-17T09:36:31.886Z,2.40
2023-01-17T09:39:02.220Z,2.00
2023-01-17T09:41:32.386Z,1.60
2023-01-17T09:44:08.888Z,2.17
2023-01-17T09:46:42.510Z,2.10
2023-01-17T09:49:15.706Z,2.03
2023-01-17T09:51:44.850Z,2.30
2023-01-17T09:54:21.649Z,1.70
2023-01-17T09:56:58.191Z,1.60
2023-01-17T09:59:35.295Z,1.83
2023-01-17T10:02:13.425Z,1.53
2023-01-17T10:05:03.076Z,1.73
2023-01-17T10:07:42.779Z,1.47
2023-01-17T10:10:31.621Z,2.00
2023-01-17T10:13:05.007Z,2.03
2023-01-17T10:15:53.112Z,1.87
2023-01-17T10:18:51.107Z,1.50
2023-01-17T10:21:28.156Z,1.40
2023-01-17T10:24:21.880Z,1.50
2023-01-17T10:26:52.445Z,1.50
2023-01-17T10:29:21.927Z,1.10
2023-01-17T10:31:55.334Z,1.20
2023-01-17T10:34:28.766Z,1.10
2023-01-17T10:37:02.671Z,1.03
2023-01-17T10:39:32.615Z,1.50
2023-01-17T10:42:08.442Z,1.30
2023-01-17T10:44:40.823Z,1.30
2023-01-17T10:47:15.559Z,1.97
2023-01-17T10:49:46.866Z,1.00
2023-01-17T10:52:24.734Z,1.20
2023-01-17T10:55:06.451Z,1.37
2023-01-17T10:57:40.275Z,1.43
2023-01-17T11:00:35.593Z,2.00
2023-01-17T11:03:04.779Z,0.80
2023-01-17T11:05:34.957Z,0.90
2023-01-17T11:08:04.700Z,0.80
2023-01-17T11:10:42.631Z,1.00
2023-01-17T11:13:28.702Z,1.10
2023-01-17T11:16:00.481Z,1.30
2023-01-17T11:18:30.957Z,1.40
2023-01-17T11:21:13.708Z,1.00
2023-01-17T11:23:43.647Z,0.80
2023-01-17T11:26:13.988Z,0.60
2023-01-17T11:28:43.543Z,0.87
2023-01-17T11:31:27.074Z,0.70
2023-01-17T11:34:14.837Z,1.10
2023-01-17T11:36:43.371Z,1.60
2023-01-17T11:39:27.601Z,1.10
2023-01-17T11:41:58.411Z,1.13
2023-01-17T11:44:29.532Z,1.40
2023-01-17T11:47:19.994Z,1.23
2023-01-17T11:49:53.297Z,1.00
2023-01-17T11:52:25.167Z,0.70
2023-01-17T11:54:55.773Z,0.70
2023-01-17T11:57:29.141Z,0.80
2023-01-17T12:00:11.698Z,1.60
2023-01-17T12:03:14.949Z,0.70
2023-01-17T12:06:03.529Z,1.50
2023-01-17T12:08:44.996Z,0.97
2023-01-17T12:11:22.952Z,1.27
2023-01-17T12:14:04.087Z,0.70
2023-01-17T12:16:59.188Z,1.00
2023-01-17T12:19:45.651Z,0.80
2023-01-17T12:22:37.135Z,0.87
2023-01-17T12:25:28.248Z,0.70
2023-01-17T12:28:12.057Z,0.80
2023-01-17T12:30:58.111Z,1.60
2023-01-17T12:33:35.280Z,1.37
2023-01-17T12:36:06.227Z,0.90
2023-01-17T12:38:37.744Z,0.63
2023-01-17T12:41:12.183Z,0.90
2023-01-17T12:43:41.895Z,0.87
2023-01-17T12:46:20.764Z,0.60
2023-01-17T12:48:53.626Z,0.70
2023-01-17T12:51:27.713Z,0.67
2023-01-17T12:54:02.312Z,0.70
2023-01-17T12:56:33.178Z,1.03
2023-01-17T12:59:12.282Z,0.67
2023-01-17T13:01:43.269Z,0.70
2023-01-17T13:04:20.886Z,1.10
2023-01-17T13:07:01.639Z,0.80
2023-01-17T13:09:34.931Z,0.77
2023-01-17T13:12:06.074Z,0.70
2023-01-17T13:14:34.265Z,1.23
2023-01-17T13:17:07.879Z,0.80
2023-01-17T13:19:46.452Z,1.00
2023-01-17T13:22:21.846Z,0.77
2023-01-17T13:24:55.690Z,0.67
2023-01-17T13:27:43.984Z,0.60
2023-01-17T13:30:54.101Z,1.20
2023-01-17T13:33:35.376Z,1.40
2023-01-17T13:36:21.273Z,1.00
2023-01-17T13:39:06.176Z,0.67
2023-01-17T13:41:44.850Z,1.13
2023-01-17T13:44:24.528Z,1.10
2023-01-17T13:47:02.622Z,1.57
2023-01-17T13:49:37.035Z,1.20
2023-01-17T13:52:09.734Z,1.40
2023-01-17T13:54:45.828Z,1.20
2023-01-17T13:57:40.714Z,0.63
2023-01-17T14:00:54.996Z,0.70
2023-01-17T14:04:00.894Z,0.80
2023-01-17T14:06:34.302Z,0.80
2023-01-17T14:09:06.141Z,0.80
2023-01-17T14:11:36.148Z,0.83
2023-01-17T14:14:43.676Z,0.70
2023-01-17T14:17:48.594Z,0.70
2023-01-17T14:20:39.369Z,0.90
2023-01-17T14:23:25.858Z,0.73
2023-01-17T14:25:57.827Z,0.77
2023-01-17T14:28:32.076Z,0.97
2023-01-17T14:31:03.352Z,0.70
2023-01-17T14:33:36.512Z,0.73
2023-01-17T14:36:06.603Z,0.73
2023-01-17T14:38:42.098Z,0.70
2023-01-17T14:41:16.344Z,0.90
2023-01-17T14:43:45.763Z,0.60
2023-01-17T14:46:22.563Z,0.90
2023-01-17T14:48:51.868Z,0.70
2023-01-17T14:51:22.902Z,0.80
2023-01-17T14:53:55.457Z,0.90
2023-01-17T14:56:25.775Z,0.80
2023-01-17T14:59:07.616Z,1.10
2023-01-17T15:01:36.650Z,0.90
2023-01-17T15:04:05.079Z,1.00
2023-01-17T15:06:38.451Z,1.73
2023-01-17T15:09:13.415Z,1.60
2023-01-17T15:11:42.801Z,1.43
2023-01-17T15:14:18.695Z,1.60
2023-01-17T15:16:46.751Z,1.50
2023-01-17T15:19:16.472Z,1.47
2023-01-17T15:21:46.765Z,1.70
2023-01-17T15:24:20.676Z,1.33
2023-01-17T15:26:50.984Z,1.50
2023-01-17T15:29:25.116Z,2.23
2023-01-17T15:31:55.081Z,2.07
2023-01-17T15:34:28.291Z,2.20
2023-01-17T15:36:58.487Z,1.70
2023-01-17T15:39:30.275Z,2.10
2023-01-17T15:42:02.783Z,2.60
2023-01-17T15:44:50.263Z,2.00
2023-01-17T15:47:29.946Z,1.77
2023-01-17T15:49:58.195Z,1.90
2023-01-17T15:52:26.706Z,2.33
2023-01-17T15:54:59.217Z,3.00
2023-01-17T15:57:30.532Z,2.47
2023-01-17T16:00:01.715Z,3.17
2023-01-17T16:02:43.480Z,3.20
2023-01-17T16:05:33.098Z,2.40
2023-01-17T16:08:32.776Z,2.93
2023-01-17T16:11:06.290Z,2.17
2023-01-17T16:13:38.487Z,2.60
2023-01-17T16:16:15.215Z,2.67
2023-01-17T16:18:44.067Z,2.60
2023-01-17T16:21:22.090Z,2.80
2023-01-17T16:23:50.743Z,3.10
2023-01-17T16:26:19.325Z,2.43
2023-01-17T16:28:49.131Z,2.90
2023-01-17T16:31:17.692Z,2.60
2023-01-17T16:33:46.473Z,3.17
2023-01-17T16:36:16.498Z,3.40
2023-01-17T16:38:45.837Z,2.77
2023-01-17T16:41:14.202Z,3.40
2023-01-17T16:43:42.307Z,3.33
2023-01-17T16:46:13.167Z,2.90
2023-01-17T16:48:41.165Z,3.10
2023-01-17T16:51:09.561Z,3.27
2023-01-17T16:53:37.838Z,3.23
2023-01-17T16:56:13.638Z,3.30
2023-01-17T16:58:42.762Z,3.17
2023-01-17T17:01:15.501Z,3.20
2023-01-17T17:03:43.917Z,2.80
2023-01-17T17:06:12.349Z,3.70
2023-01-17T17:08:40.780Z,2.83
2023-01-17T17:11:13.157Z,4.60
2023-01-17T17:13:42.377Z,3.47
2023-01-17T17:16:14.893Z,2.90
2023-01-17T17:18:43.662Z,3.67
2023-01-17T17:21:11.944Z,3.67
2023-01-17T17:23:40.130Z,3.17
2023-01-17T17:26:08.205Z,3.97
2023-01-17T17:28:36.837Z,3.20
2023-01-17T17:31:07.171Z,2.50
2023-01-17T17:33:36.984Z,3.17
2023-01-17T17:36:07.223Z,3.83
2023-01-17T17:38:35.973Z,3.70
2023-01-17T17:41:09.774Z,3.40
2023-01-17T17:43:40.514Z,3.73
2023-01-17T17:46:09.096Z,3.50
2023-01-17T17:48:38.487Z,4.33
2023-01-17T17:51:06.847Z,4.10
2023-01-17T17:53:34.901Z,4.47
2023-01-17T17:56:07.197Z,3.77
2023-01-17T17:58:36.621Z,5.07
2023-01-17T18:01:06.395Z,3.53
2023-01-17T18:03:34.938Z,4.67
2023-01-17T18:06:06.765Z,3.93
2023-01-17T18:08:35.311Z,4.20
2023-01-17T18:11:09.114Z,4.70
2023-01-17T18:13:37.220Z,4.10
2023-01-17T18:16:07.815Z,4.80
2023-01-17T18:18:36.809Z,4.87
2023-01-17T18:21:12.249Z,4.97
2023-01-17T18:23:42.367Z,4.90
2023-01-17T18:26:17.883Z,4.57
2023-01-17T18:28:46.244Z,4.80
2023-01-17T18:31:14.253Z,4.80
2023-01-17T18:33:42.566Z,4.60
2023-01-17T18:36:13.442Z,5.33
2023-01-17T18:38:44.153Z,7.27
2023-01-17T18:41:13.998Z,5.30
2023-01-17T18:43:42.378Z,5.27
2023-01-17T18:46:11.823Z,5.10
2023-01-17T18:48:40.234Z,5.60
2023-01-17T18:51:10.229Z,6.20
2023-01-17T18:53:40.635Z,5.20
2023-01-17T18:56:10.632Z,7.10
2023-01-17T18:58:40.958Z,6.33
2023-01-17T19:01:11.234Z,5.67
2023-01-17T19:03:40.935Z,6.40
2023-01-17T19:06:12.971Z,6.23
2023-01-17T19:08:43.139Z,5.87
2023-01-17T19:11:11.773Z,5.70
2023-01-17T19:13:40.545Z,6.30
2023-01-17T19:16:12.270Z,5.77
2023-01-17T19:18:40.307Z,6.50
2023-01-17T19:21:10.075Z,6.77
2023-01-17T19:23:38.454Z,5.93
2023-01-17T19:26:09.362Z,5.77
2023-01-17T19:28:39.635Z,6.67
2023-01-17T19:31:09.656Z,5.77
2023-01-17T19:33:40.595Z,7.00
2023-01-17T19:36:10.669Z,7.00
2023-01-17T19:38:39.556Z,6.43
2023-01-17T19:41:10.448Z,7.40
2023-01-17T19:43:39.454Z,6.80
2023-01-17T19:46:08.995Z,7.73
2023-01-17T19:48:37.939Z,7.20
2023-01-17T19:51:08.624Z,8.40
2023-01-17T19:53:37.256Z,6.50
2023-01-17T19:56:07.066Z,6.33
2023-01-17T19:58:36.735Z,5.90
2023-01-17T20:01:09.259Z,5.60
2023-01-17T20:03:38.480Z,6.17
2023-01-17T20:06:07.524Z,6.40
2023-01-17T20:08:35.951Z,5.93
2023-01-17T20:11:05.402Z,5.63
2023-01-17T20:13:33.621Z,6.87
2023-01-17T20:16:08.489Z,6.53
2023-01-17T20:18:37.535Z,6.67
2023-01-17T20:21:06.862Z,6.50
2023-01-17T20:23:36.373Z,6.60
2023-01-17T20:26:04.699Z,7.90
2023-01-17T20:28:36.819Z,7.07
2023-01-17T20:31:12.671Z,7.00
2023-01-17T20:33:41.260Z,6.00
2023-01-17T20:36:11.866Z,7.00
2023-01-17T20:38:46.747Z,7.90
2023-01-17T20:41:17.651Z,7.13
2023-01-17T20:43:47.541Z,6.40
2023-01-17T20:46:20.194Z,7.67
2023-01-17T20:48:50.031Z,7.90
2023-01-17T20:51:19.121Z,7.47
2023-01-17T20:53:51.506Z,7.60
2023-01-17T20:56:20.284Z,7.87
2023-01-17T20:58:52.555Z,8.30
2023-01-17T21:01:22.864Z,8.10
2023-01-17T21:03:53.952Z,8.47
2023-01-17T21:06:24.256Z,8.47
2023-01-17T21:08:53.495Z,6.90
2023-01-17T21:11:23.955Z,7.53
2023-01-17T21:13:52.781Z,7.17
2023-01-17T21:16:23.795Z,7.90
2023-01-17T21:18:52.983Z,8.17
2023-01-17T21:21:22.939Z,7.87
2023-01-17T21:23:55.580Z,7.70
2023-01-17T21:26:25.631Z,8.93
2023-01-17T21:28:54.629Z,9.67
2023-01-17T21:31:26.466Z,7.70
2023-01-17T21:33:56.430Z,8.27
2023-01-17T21:36:26.600Z,7.53
2023-01-17T21:38:56.974Z,8.20
2023-01-17T21:41:26.592Z,8.80
2023-01-17T21:43:56.500Z,8.60
2023-01-17T21:46:26.828Z,8.37
2023-01-17T21:48:57.928Z,7.50
2023-01-17T21:51:46.517Z,7.30
2023-01-17T21:54:14.870Z,8.00
2023-01-17T21:57:00.451Z,8.33
2023-01-17T21:59:28.578Z,7.67
2023-01-17T22:01:58.166Z,7.37
2023-01-17T22:04:27.405Z,7.57
2023-01-17T22:06:55.370Z,7.20
2023-01-17T22:09:23.337Z,12.00
2023-01-17T22:11:51.309Z,7.90
2023-01-17T22:14:19.608Z,8.87
2023-01-17T22:16:48.620Z,8.70
2023-01-17T22:19:18.027Z,8.30
2023-01-17T22:21:45.993Z,7.47
2023-01-17T22:24:16.598Z,8.00
2023-01-17T22:26:44.519Z,8.47
2023-01-17T22:29:12.764Z,8.60
2023-01-17T22:31:40.977Z,9.03
2023-01-17T22:34:08.982Z,7.63
2023-01-17T22:36:38.358Z,9.10
2023-01-17T22:39:06.522Z,8.50
2023-01-17T22:41:35.181Z,8.73
2023-01-17T22:44:03.563Z,8.17
2023-01-17T22:46:33.428Z,8.43
2023-01-17T22:49:01.653Z,9.10
2023-01-17T22:51:30.475Z,7.80
2023-01-17T22:54:01.698Z,8.43
2023-01-17T22:56:31.230Z,7.90
2023-01-17T22:59:00.649Z,9.50
2023-01-17T23:01:30.132Z,8.00
2023-01-17T23:03:59.569Z,8.70
2023-01-17T23:06:30.291Z,7.67
2023-01-17T23:09:01.691Z,8.27
2023-01-17T23:11:41.219Z,8.63
2023-01-17T23:14:12.604Z,7.93
2023-01-17T23:17:00.004Z,8.17
2023-01-17T23:19:36.587Z,7.60
2023-01-17T23:22:19.290Z,8.20
2023-01-17T23:24:51.749Z,7.70
2023-01-17T23:27:40.367Z,6.73
2023-01-17T23:30:12.426Z,7.40
2023-01-17T23:32:44.123Z,7.30
2023-01-17T23:35:12.121Z,8.13
2023-01-17T23:38:09.283Z,7.90
2023-01-17T23:40:39.779Z,6.97
2023-01-17T23:43:26.208Z,7.27
2023-01-17T23:45:55.496Z,7.73
2023-01-17T23:48:25.665Z,7.83
2023-01-17T23:50:58.298Z,7.70
2023-01-17T23:53:27.354Z,7.77
2023-01-17T23:55:59.522Z,10.27
2023-01-17T23:58:28.819Z,8.83
